sensor_id;sensor_type;location;lat;lon;timestamp;pressure;altitude;pressure_sealevel;temperature;humidity
4410;BME280;2218;51.408;7.208;2023-03-21T00:02:26;99860.00;;;18.97;40.76
4410;BME280;2218;51.408;7.208;2023-03-21T00:04:53;99852.94;;;18.98;40.84
4410;BME280;2218;51.408;7.208;2023-03-21T00:07:20;99847.69;;;18.98;40.62
4410;BME280;2218;51.408;7.208;2023-03-21T00:09:47;99846.97;;;18.96;40.53
4410;BME280;2218;51.408;7.208;2023-03-21T00:12:15;99847.78;;;18.96;40.56
4410;BME280;2218;51.408;7.208;2023-03-21T00:14:45;99838.09;;;18.97;40.90
4410;BME280;2218;51.408;7.208;2023-03-21T00:17:12;99840.84;;;18.95;40.82
4410;BME280;2218;51.408;7.208;2023-03-21T00:19:40;99837.38;;;18.95;40.94
4410;BME280;2218;51.408;7.208;2023-03-21T00:22:09;99834.75;;;18.95;40.92
4410;BME280;2218;51.408;7.208;2023-03-21T00:24:36;99835.66;;;18.94;40.79
4410;BME280;2218;51.408;7.208;2023-03-21T00:27:04;99835.66;;;18.94;40.75
4410;BME280;2218;51.408;7.208;2023-03-21T00:29:33;99832.09;;;18.95;40.75
4410;BME280;2218;51.408;7.208;2023-03-21T00:31:59;99833.03;;;18.94;40.74
4410;BME280;2218;51.408;7.208;2023-03-21T00:34:27;99824.28;;;18.93;40.60
4410;BME280;2218;51.408;7.208;2023-03-21T00:36:53;99820.81;;;18.93;40.80
4410;BME280;2218;51.408;7.208;2023-03-21T00:39:20;99823.44;;;18.93;40.59
4410;BME280;2218;51.408;7.208;2023-03-21T00:41:49;99817.34;;;18.92;40.98
4410;BME280;2218;51.408;7.208;2023-03-21T00:44:16;99810.38;;;18.91;40.94
4410;BME280;2218;51.408;7.208;2023-03-21T00:46:44;99811.22;;;18.92;40.61
4410;BME280;2218;51.408;7.208;2023-03-21T00:49:11;99805.97;;;18.92;41.04
4410;BME280;2218;51.408;7.208;2023-03-21T00:51:40;99805.97;;;18.92;40.79
4410;BME280;2218;51.408;7.208;2023-03-21T00:54:11;99804.28;;;18.91;40.96
4410;BME280;2218;51.408;7.208;2023-03-21T00:56:40;99803.44;;;18.90;40.91
4410;BME280;2218;51.408;7.208;2023-03-21T00:59:07;99804.28;;;18.91;40.77
4410;BME280;2218;51.408;7.208;2023-03-21T01:01:35;99800.88;;;18.89;40.93
4410;BME280;2218;51.408;7.208;2023-03-21T01:04:07;99797.41;;;18.88;40.98
4410;BME280;2218;51.408;7.208;2023-03-21T01:06:40;99797.34;;;18.90;40.89
4410;BME280;2218;51.408;7.208;2023-03-21T01:09:12;99792.06;;;18.90;40.97
4410;BME280;2218;51.408;7.208;2023-03-21T01:11:40;99792.06;;;18.90;40.62
4410;BME280;2218;51.408;7.208;2023-03-21T01:14:11;99795.63;;;18.89;40.87
4410;BME280;2218;51.408;7.208;2023-03-21T01:16:38;99798.25;;;18.89;40.98
4410;BME280;2218;51.408;7.208;2023-03-21T01:19:10;99791.31;;;18.88;40.69
4410;BME280;2218;51.408;7.208;2023-03-21T01:21:37;99799.19;;;18.88;40.84
4410;BME280;2218;51.408;7.208;2023-03-21T01:24:05;99787.84;;;18.87;40.66
4410;BME280;2218;51.408;7.208;2023-03-21T01:26:35;99792.25;;;18.87;40.68
4410;BME280;2218;51.408;7.208;2023-03-21T01:29:03;99786.03;;;18.88;40.90
4410;BME280;2218;51.408;7.208;2023-03-21T01:31:30;99787.84;;;18.87;40.68
4410;BME280;2218;51.408;7.208;2023-03-21T01:33:57;99782.69;;;18.85;40.83
4410;BME280;2218;51.408;7.208;2023-03-21T01:36:26;99778.31;;;18.84;40.89
4410;BME280;2218;51.408;7.208;2023-03-21T01:39:02;99782.69;;;18.85;40.61
4410;BME280;2218;51.408;7.208;2023-03-21T01:41:33;99780.03;;;18.85;40.69
4410;BME280;2218;51.408;7.208;2023-03-21T01:44:00;99772.16;;;18.85;40.71
4410;BME280;2218;51.408;7.208;2023-03-21T01:46:38;99778.31;;;18.84;40.63
4410;BME280;2218;51.408;7.208;2023-03-21T01:49:18;99773.06;;;18.84;41.04
4410;BME280;2218;51.408;7.208;2023-03-21T01:51:57;99776.66;;;18.83;40.97
4410;BME280;2218;51.408;7.208;2023-03-21T01:54:33;99774.84;;;18.84;40.71
4410;BME280;2218;51.408;7.208;2023-03-21T01:57:08;99781.06;;;18.83;40.96
4410;BME280;2218;51.408;7.208;2023-03-21T01:59:42;99777.50;;;18.84;40.92
4410;BME280;2218;51.408;7.208;2023-03-21T02:02:33;99775.81;;;18.83;41.14
4410;BME280;2218;51.408;7.208;2023-03-21T02:05:37;99767.06;;;18.82;40.97
4410;BME280;2218;51.408;7.208;2023-03-21T02:08:08;99762.75;;;18.81;40.74
4410;BME280;2218;51.408;7.208;2023-03-21T02:10:35;99760.97;;;18.82;41.13
4410;BME280;2218;51.408;7.208;2023-03-21T02:13:04;99753.06;;;18.82;41.00
4410;BME280;2218;51.408;7.208;2023-03-21T02:15:38;99750.53;;;18.80;41.33
4410;BME280;2218;51.408;7.208;2023-03-21T02:18:25;99755.81;;;18.80;41.09
4410;BME280;2218;51.408;7.208;2023-03-21T02:21:31;99756.66;;;18.81;40.98
4410;BME280;2218;51.408;7.208;2023-03-21T02:24:53;99748.81;;;18.79;41.02
4410;BME280;2218;51.408;7.208;2023-03-21T02:27:26;99744.44;;;18.80;41.14
4410;BME280;2218;51.408;7.208;2023-03-21T02:30:47;99737.56;;;18.77;40.91
4410;BME280;2218;51.408;7.208;2023-03-21T02:36:59;99738.53;;;18.76;41.29
4410;BME280;2218;51.408;7.208;2023-03-21T02:39:40;99740.19;;;18.77;40.93
4410;BME280;2218;51.408;7.208;2023-03-21T02:42:15;99747.25;;;18.77;41.15
4410;BME280;2218;51.408;7.208;2023-03-21T02:44:49;99738.53;;;18.76;41.09
4410;BME280;2218;51.408;7.208;2023-03-21T02:47:25;99741.03;;;18.78;41.01
4410;BME280;2218;51.408;7.208;2023-03-21T02:50:03;99738.53;;;18.76;41.19
4410;BME280;2218;51.408;7.208;2023-03-21T02:52:34;99743.78;;;18.76;41.34
4410;BME280;2218;51.408;7.208;2023-03-21T02:55:06;99738.53;;;18.76;41.12
4410;BME280;2218;51.408;7.208;2023-03-21T02:57:47;99738.53;;;18.76;41.25
4410;BME280;2218;51.408;7.208;2023-03-21T03:00:19;99733.25;;;18.76;41.06
4410;BME280;2218;51.408;7.208;2023-03-21T03:02:49;99736.84;;;18.75;41.03
4410;BME280;2218;51.408;7.208;2023-03-21T03:05:20;99736.84;;;18.75;41.26
4410;BME280;2218;51.408;7.208;2023-03-21T03:08:05;99734.22;;;18.75;41.01
4410;BME280;2218;51.408;7.208;2023-03-21T03:10:55;99734.28;;;18.74;41.16
4410;BME280;2218;51.408;7.208;2023-03-21T03:13:42;99733.38;;;18.75;41.59
4410;BME280;2218;51.408;7.208;2023-03-21T03:16:21;99733.25;;;18.76;41.49
4410;BME280;2218;51.408;7.208;2023-03-21T03:18:53;99732.41;;;18.76;41.40
4410;BME280;2218;51.408;7.208;2023-03-21T03:21:28;99725.34;;;18.76;41.43
4410;BME280;2218;51.408;7.208;2023-03-21T03:24:03;99713.88;;;18.77;41.18
4410;BME280;2218;51.408;7.208;2023-03-21T03:26:35;99717.22;;;18.79;41.48
4410;BME280;2218;51.408;7.208;2023-03-21T03:29:08;99722.50;;;18.79;41.28
4410;BME280;2218;51.408;7.208;2023-03-21T03:31:43;99713.69;;;18.80;41.41
4410;BME280;2218;51.408;7.208;2023-03-21T03:34:18;99698.72;;;18.81;41.42
4410;BME280;2218;51.408;7.208;2023-03-21T03:36:53;99699.56;;;18.81;41.31
4410;BME280;2218;51.408;7.208;2023-03-21T03:39:32;99698.59;;;18.82;41.17
4410;BME280;2218;51.408;7.208;2023-03-21T03:42:05;99700.28;;;18.83;41.50
4410;BME280;2218;51.408;7.208;2023-03-21T03:44:39;99698.50;;;18.84;41.38
4410;BME280;2218;51.408;7.208;2023-03-21T03:47:11;99695.03;;;18.83;41.26
4410;BME280;2218;51.408;7.208;2023-03-21T03:49:46;99696.69;;;18.84;41.48
4410;BME280;2218;51.408;7.208;2023-03-21T03:52:20;99701.97;;;18.84;41.46
4410;BME280;2218;51.408;7.208;2023-03-21T03:54:58;99688.81;;;18.84;41.46
4410;BME280;2218;51.408;7.208;2023-03-21T03:57:26;99685.34;;;18.84;41.26
4410;BME280;2218;51.408;7.208;2023-03-21T03:59:54;99685.25;;;18.85;41.26
4410;BME280;2218;51.408;7.208;2023-03-21T04:02:50;99684.41;;;18.85;41.34
4410;BME280;2218;51.408;7.208;2023-03-21T04:05:21;99679.13;;;18.85;41.46
4410;BME280;2218;51.408;7.208;2023-03-21T04:07:49;99679.97;;;18.85;41.33
4410;BME280;2218;51.408;7.208;2023-03-21T04:10:19;99683.47;;;18.86;41.47
4410;BME280;2218;51.408;7.208;2023-03-21T04:12:47;99684.41;;;18.85;41.46
4410;BME280;2218;51.408;7.208;2023-03-21T04:15:23;99686.94;;;18.87;41.34
4410;BME280;2218;51.408;7.208;2023-03-21T04:17:59;99679.97;;;18.85;41.29
4410;BME280;2218;51.408;7.208;2023-03-21T04:20:27;99686.94;;;18.87;41.69
4410;BME280;2218;51.408;7.208;2023-03-21T04:22:54;99680.81;;;18.86;41.30
4410;BME280;2218;51.408;7.208;2023-03-21T04:25:23;99681.66;;;18.87;41.69
4410;BME280;2218;51.408;7.208;2023-03-21T04:27:55;99681.66;;;18.87;41.61
4410;BME280;2218;51.408;7.208;2023-03-21T04:30:42;99681.66;;;18.87;41.46
4410;BME280;2218;51.408;7.208;2023-03-21T04:33:15;99677.22;;;18.87;41.67
4410;BME280;2218;51.408;7.208;2023-03-21T04:35:50;99680.72;;;18.88;41.66
4410;BME280;2218;51.408;7.208;2023-03-21T04:38:22;99682.50;;;18.87;41.46
4410;BME280;2218;51.408;7.208;2023-03-21T04:40:51;99675.44;;;18.88;41.86
4410;BME280;2218;51.408;7.208;2023-03-21T04:43:17;99670.19;;;18.88;41.85
4410;BME280;2218;51.408;7.208;2023-03-21T04:45:45;99663.97;;;18.89;41.52
4410;BME280;2218;51.408;7.208;2023-03-21T04:48:12;99666.59;;;18.89;41.74
4410;BME280;2218;51.408;7.208;2023-03-21T04:50:39;99659.53;;;18.89;41.51
4410;BME280;2218;51.408;7.208;2023-03-21T04:53:06;99653.41;;;18.89;41.53
4410;BME280;2218;51.408;7.208;2023-03-21T04:55:33;99653.41;;;18.89;41.89
4410;BME280;2218;51.408;7.208;2023-03-21T04:58:03;99649.88;;;18.90;41.73
4410;BME280;2218;51.408;7.208;2023-03-21T05:00:31;99655.13;;;18.90;41.89
4410;BME280;2218;51.408;7.208;2023-03-21T05:03:03;99664.78;;;18.89;41.67
4410;BME280;2218;51.408;7.208;2023-03-21T05:05:34;99662.09;;;18.91;41.66
4410;BME280;2218;51.408;7.208;2023-03-21T05:08:02;99662.09;;;18.91;41.76
4410;BME280;2218;51.408;7.208;2023-03-21T05:10:29;99661.13;;;18.92;42.00
4410;BME280;2218;51.408;7.208;2023-03-21T05:12:56;99660.16;;;18.93;41.88
4410;BME280;2218;51.408;7.208;2023-03-21T05:15:24;99664.47;;;18.94;41.87
4410;BME280;2218;51.408;7.208;2023-03-21T05:17:51;99659.97;;;18.96;41.66
4410;BME280;2218;51.408;7.208;2023-03-21T05:20:18;99663.34;;;18.98;41.80
4410;BME280;2218;51.408;7.208;2023-03-21T05:22:46;99664.09;;;19.00;41.83
4410;BME280;2218;51.408;7.208;2023-03-21T05:25:15;99661.22;;;19.03;41.90
4410;BME280;2218;51.408;7.208;2023-03-21T05:28:16;99664.63;;;19.05;41.65
4410;BME280;2218;51.408;7.208;2023-03-21T05:30:46;99664.38;;;19.08;41.67
4410;BME280;2218;51.408;7.208;2023-03-21T05:33:13;99665.13;;;19.10;41.42
4410;BME280;2218;51.408;7.208;2023-03-21T05:35:40;99669.22;;;19.14;41.59
4410;BME280;2218;51.408;7.208;2023-03-21T05:38:09;99670.94;;;19.15;41.65
4410;BME280;2218;51.408;7.208;2023-03-21T05:40:47;99666.50;;;19.16;41.56
4410;BME280;2218;51.408;7.208;2023-03-21T05:43:15;99664.59;;;19.18;41.47
4410;BME280;2218;51.408;7.208;2023-03-21T05:45:45;99666.38;;;19.17;41.40
4410;BME280;2218;51.408;7.208;2023-03-21T05:48:13;99659.19;;;19.19;41.45
4410;BME280;2218;51.408;7.208;2023-03-21T05:50:58;99665.22;;;19.21;41.38
4410;BME280;2218;51.408;7.208;2023-03-21T05:53:25;99656.38;;;19.22;41.29
4410;BME280;2218;51.408;7.208;2023-03-21T05:55:52;99653.59;;;19.24;41.56
4410;BME280;2218;51.408;7.208;2023-03-21T05:58:38;99657.09;;;19.24;41.24
4410;BME280;2218;51.408;7.208;2023-03-21T06:01:06;99658.88;;;19.24;41.46
4410;BME280;2218;51.408;7.208;2023-03-21T06:03:35;99655.31;;;19.25;41.48
4410;BME280;2218;51.408;7.208;2023-03-21T06:06:07;99651.81;;;19.24;41.49
4410;BME280;2218;51.408;7.208;2023-03-21T06:08:39;99654.44;;;19.24;41.42
4410;BME280;2218;51.408;7.208;2023-03-21T06:11:18;99664.06;;;19.25;41.21
4410;BME280;2218;51.408;7.208;2023-03-21T06:13:46;99657.84;;;19.26;41.25
4410;BME280;2218;51.408;7.208;2023-03-21T06:16:15;99661.44;;;19.25;41.52
4410;BME280;2218;51.408;7.208;2023-03-21T06:18:42;99656.16;;;19.25;41.53
4410;BME280;2218;51.408;7.208;2023-03-21T06:21:19;99660.59;;;19.25;41.53
4410;BME280;2218;51.408;7.208;2023-03-21T06:23:47;99657.09;;;19.24;41.64
4410;BME280;2218;51.408;7.208;2023-03-21T06:26:16;99658.03;;;19.23;41.44
4410;BME280;2218;51.408;7.208;2023-03-21T06:28:44;99655.41;;;19.23;41.55
4410;BME280;2218;51.408;7.208;2023-03-21T06:31:12;99658.03;;;19.23;41.46
4410;BME280;2218;51.408;7.208;2023-03-21T06:33:40;99664.16;;;19.24;41.66
4410;BME280;2218;51.408;7.208;2023-03-21T06:36:08;99664.16;;;19.24;41.44
4410;BME280;2218;51.408;7.208;2023-03-21T06:38:36;99658.88;;;19.24;41.42
4410;BME280;2218;51.408;7.208;2023-03-21T06:41:05;99660.69;;;19.23;41.60
4410;BME280;2218;51.408;7.208;2023-03-21T06:43:39;99661.50;;;19.24;41.46
4410;BME280;2218;51.408;7.208;2023-03-21T06:46:07;99658.03;;;19.23;41.50
4410;BME280;2218;51.408;7.208;2023-03-21T06:48:34;99658.03;;;19.23;41.81
4410;BME280;2218;51.408;7.208;2023-03-21T06:51:04;99657.09;;;19.24;41.72
4410;BME280;2218;51.408;7.208;2023-03-21T06:53:32;99654.44;;;19.24;41.57
4410;BME280;2218;51.408;7.208;2023-03-21T06:56:21;99657.09;;;19.24;41.53
4410;BME280;2218;51.408;7.208;2023-03-21T06:58:49;99657.09;;;19.24;41.58
4410;BME280;2218;51.408;7.208;2023-03-21T07:01:36;99665.00;;;19.24;41.83
4410;BME280;2218;51.408;7.208;2023-03-21T07:04:06;99658.88;;;19.24;41.88
4410;BME280;2218;51.408;7.208;2023-03-21T07:06:35;99653.59;;;19.24;41.82
4410;BME280;2218;51.408;7.208;2023-03-21T07:09:04;99654.44;;;19.24;41.73
4410;BME280;2218;51.408;7.208;2023-03-21T07:11:34;99661.44;;;19.25;42.00
4410;BME280;2218;51.408;7.208;2023-03-21T07:14:03;99658.78;;;19.25;41.73
4410;BME280;2218;51.408;7.208;2023-03-21T07:16:30;99657.84;;;19.26;41.79
4410;BME280;2218;51.408;7.208;2023-03-21T07:18:56;99661.44;;;19.25;42.13
4410;BME280;2218;51.408;7.208;2023-03-21T07:21:23;99660.47;;;19.26;41.84
4410;BME280;2218;51.408;7.208;2023-03-21T07:23:52;99657.00;;;19.26;41.89
4410;BME280;2218;51.408;7.208;2023-03-21T07:26:19;99658.78;;;19.25;42.24
4410;BME280;2218;51.408;7.208;2023-03-21T07:28:46;99664.78;;;19.27;41.98
4410;BME280;2218;51.408;7.208;2023-03-21T07:31:15;99663.94;;;19.27;42.29
4410;BME280;2218;51.408;7.208;2023-03-21T07:33:44;99665.75;;;19.26;42.12
4410;BME280;2218;51.408;7.208;2023-03-21T07:36:15;99662.16;;;19.27;42.19
4410;BME280;2218;51.408;7.208;2023-03-21T07:38:44;99658.56;;;19.28;42.27
4410;BME280;2218;51.408;7.208;2023-03-21T07:41:13;99659.41;;;19.29;42.46
4410;BME280;2218;51.408;7.208;2023-03-21T07:43:40;99666.47;;;19.28;42.14
4410;BME280;2218;51.408;7.208;2023-03-21T07:46:10;99670.81;;;19.29;41.98
4410;BME280;2218;51.408;7.208;2023-03-21T07:48:37;99662.91;;;19.29;42.46
4410;BME280;2218;51.408;7.208;2023-03-21T07:51:06;99664.59;;;19.30;42.43
4410;BME280;2218;51.408;7.208;2023-03-21T07:53:34;99658.47;;;19.30;42.46
4410;BME280;2218;51.408;7.208;2023-03-21T07:56:01;99665.44;;;19.31;42.19
4410;BME280;2218;51.408;7.208;2023-03-21T07:58:30;99660.16;;;19.31;42.33
4410;BME280;2218;51.408;7.208;2023-03-21T08:00:59;99667.94;;;19.32;42.28
4410;BME280;2218;51.408;7.208;2023-03-21T08:03:26;99667.09;;;19.32;42.16
4410;BME280;2218;51.408;7.208;2023-03-21T08:05:54;99661.84;;;19.32;42.48
4410;BME280;2218;51.408;7.208;2023-03-21T08:08:21;99677.63;;;19.32;42.23
4410;BME280;2218;51.408;7.208;2023-03-21T08:10:48;99672.25;;;19.33;42.47
4410;BME280;2218;51.408;7.208;2023-03-21T08:13:15;99663.50;;;19.33;42.36
4410;BME280;2218;51.408;7.208;2023-03-21T08:15:43;99661.72;;;19.33;42.23
4410;BME280;2218;51.408;7.208;2023-03-21T08:18:11;99663.50;;;19.33;42.44
4410;BME280;2218;51.408;7.208;2023-03-21T08:20:38;99659.09;;;19.33;42.44
4410;BME280;2218;51.408;7.208;2023-03-21T08:23:05;99659.09;;;19.33;42.40
4410;BME280;2218;51.408;7.208;2023-03-21T08:25:32;99646.88;;;19.32;42.64
4410;BME280;2218;51.408;7.208;2023-03-21T08:27:59;99651.19;;;19.33;42.51
4410;BME280;2218;51.408;7.208;2023-03-21T08:30:28;99648.53;;;19.33;42.42
4410;BME280;2218;51.408;7.208;2023-03-21T08:32:59;99643.28;;;19.33;42.50
4410;BME280;2218;51.408;7.208;2023-03-21T08:35:26;99645.81;;;19.35;42.66
4410;BME280;2218;51.408;7.208;2023-03-21T08:37:53;99651.09;;;19.35;42.47
4410;BME280;2218;51.408;7.208;2023-03-21T08:40:20;99645.81;;;19.35;42.22
4410;BME280;2218;51.408;7.208;2023-03-21T08:42:47;99648.34;;;19.36;42.58
4410;BME280;2218;51.408;7.208;2023-03-21T08:45:16;99651.94;;;19.35;42.48
4410;BME280;2218;51.408;7.208;2023-03-21T08:47:43;99650.84;;;19.38;42.62
4410;BME280;2218;51.408;7.208;2023-03-21T08:50:15;99650.00;;;19.37;42.37
4410;BME280;2218;51.408;7.208;2023-03-21T08:52:42;99660.56;;;19.37;42.65
4410;BME280;2218;51.408;7.208;2023-03-21T08:55:11;99659.59;;;19.38;42.62
4410;BME280;2218;51.408;7.208;2023-03-21T08:57:39;99660.44;;;19.39;42.67
4410;BME280;2218;51.408;7.208;2023-03-21T09:00:10;99650.00;;;19.37;42.34
4410;BME280;2218;51.408;7.208;2023-03-21T09:02:39;99660.44;;;19.39;42.42
4410;BME280;2218;51.408;7.208;2023-03-21T09:05:07;99653.41;;;19.40;42.51
4410;BME280;2218;51.408;7.208;2023-03-21T09:07:39;99656.13;;;19.38;42.56
4410;BME280;2218;51.408;7.208;2023-03-21T09:10:10;99663.94;;;19.40;42.76
4410;BME280;2218;51.408;7.208;2023-03-21T09:12:38;99663.94;;;19.40;42.72
4410;BME280;2218;51.408;7.208;2023-03-21T09:15:07;99663.94;;;19.40;42.92
4410;BME280;2218;51.408;7.208;2023-03-21T09:17:34;99663.00;;;19.41;42.99
4410;BME280;2218;51.408;7.208;2023-03-21T09:20:04;99663.00;;;19.41;42.69
4410;BME280;2218;51.408;7.208;2023-03-21T09:22:37;99656.88;;;19.40;42.89
4410;BME280;2218;51.408;7.208;2023-03-21T09:25:05;99656.75;;;19.42;42.64
4410;BME280;2218;51.408;7.208;2023-03-21T09:27:36;99654.13;;;19.42;43.03
4410;BME280;2218;51.408;7.208;2023-03-21T09:30:04;99656.75;;;19.42;42.91
4410;BME280;2218;51.408;7.208;2023-03-21T09:32:31;99654.00;;;19.43;43.03
4410;BME280;2218;51.408;7.208;2023-03-21T09:34:59;99658.44;;;19.43;43.22
4410;BME280;2218;51.408;7.208;2023-03-21T09:37:26;99656.63;;;19.43;42.99
4410;BME280;2218;51.408;7.208;2023-03-21T09:39:54;99653.03;;;19.44;42.92
4410;BME280;2218;51.408;7.208;2023-03-21T09:42:34;99654.84;;;19.44;43.07
4410;BME280;2218;51.408;7.208;2023-03-21T09:45:11;99655.69;;;19.44;43.24
4410;BME280;2218;51.408;7.208;2023-03-21T09:47:45;99647.78;;;19.44;43.09
4410;BME280;2218;51.408;7.208;2023-03-21T09:50:23;99651.28;;;19.45;43.31
4410;BME280;2218;51.408;7.208;2023-03-21T09:52:56;99650.31;;;19.46;43.05
4410;BME280;2218;51.408;7.208;2023-03-21T09:55:29;99648.66;;;19.45;43.22
4410;BME280;2218;51.408;7.208;2023-03-21T09:58:04;99642.41;;;19.46;43.36
4410;BME280;2218;51.408;7.208;2023-03-21T10:00:37;99648.53;;;19.46;43.46
4410;BME280;2218;51.408;7.208;2023-03-21T10:03:14;99654.63;;;19.47;43.33
4410;BME280;2218;51.408;7.208;2023-03-21T10:05:46;99649.38;;;19.47;43.34
4410;BME280;2218;51.408;7.208;2023-03-21T10:08:20;99654.63;;;19.47;43.57
4410;BME280;2218;51.408;7.208;2023-03-21T10:10:52;99648.53;;;19.46;43.26
4410;BME280;2218;51.408;7.208;2023-03-21T10:13:24;99647.56;;;19.47;43.31
4410;BME280;2218;51.408;7.208;2023-03-21T10:15:56;99646.72;;;19.47;43.52
4410;BME280;2218;51.408;7.208;2023-03-21T10:18:28;99644.09;;;19.47;43.82
4410;BME280;2218;51.408;7.208;2023-03-21T10:20:56;99638.81;;;19.47;43.46
4410;BME280;2218;51.408;7.208;2023-03-21T10:23:28;99639.66;;;19.47;43.76
4410;BME280;2218;51.408;7.208;2023-03-21T10:25:59;99640.50;;;19.48;43.91
4410;BME280;2218;51.408;7.208;2023-03-21T10:28:32;99634.28;;;19.49;43.46
4410;BME280;2218;51.408;7.208;2023-03-21T10:31:04;99632.59;;;19.48;43.48
4410;BME280;2218;51.408;7.208;2023-03-21T10:33:35;99633.44;;;19.48;43.66
4410;BME280;2218;51.408;7.208;2023-03-21T10:36:07;99624.69;;;19.48;43.76
4410;BME280;2218;51.408;7.208;2023-03-21T10:38:43;99626.38;;;19.49;43.68
4410;BME280;2218;51.408;7.208;2023-03-21T10:41:12;99626.38;;;19.49;43.88
4410;BME280;2218;51.408;7.208;2023-03-21T10:43:41;99622.81;;;19.50;43.82
4410;BME280;2218;51.408;7.208;2023-03-21T10:46:16;99619.22;;;19.51;43.59
4410;BME280;2218;51.408;7.208;2023-03-21T10:48:44;99622.81;;;19.50;43.61
4410;BME280;2218;51.408;7.208;2023-03-21T10:51:19;99617.53;;;19.50;43.71
4410;BME280;2218;51.408;7.208;2023-03-21T10:53:51;99609.50;;;19.51;43.73
4410;BME280;2218;51.408;7.208;2023-03-21T10:56:25;99607.81;;;19.50;43.66
4410;BME280;2218;51.408;7.208;2023-03-21T10:58:56;99601.59;;;19.51;43.36
4410;BME280;2218;51.408;7.208;2023-03-21T11:01:29;99596.31;;;19.51;43.85
4410;BME280;2218;51.408;7.208;2023-03-21T11:04:06;99594.53;;;19.52;43.89
4410;BME280;2218;51.408;7.208;2023-03-21T11:06:38;99588.41;;;19.51;43.83
4410;BME280;2218;51.408;7.208;2023-03-21T11:09:13;99592.59;;;19.54;43.64
4410;BME280;2218;51.408;7.208;2023-03-21T11:11:50;99590.94;;;19.53;43.87
4410;BME280;2218;51.408;7.208;2023-03-21T11:14:33;99583.03;;;19.53;43.75
4410;BME280;2218;51.408;7.208;2023-03-21T11:17:18;99583.88;;;19.53;43.73
4410;BME280;2218;51.408;7.208;2023-03-21T11:19:48;99576.78;;;19.54;43.64
4410;BME280;2218;51.408;7.208;2023-03-21T11:22:20;99560.16;;;19.53;43.77
4410;BME280;2218;51.408;7.208;2023-03-21T11:24:51;99560.97;;;19.54;43.74
4410;BME280;2218;51.408;7.208;2023-03-21T11:27:20;99553.06;;;19.54;43.57
4410;BME280;2218;51.408;7.208;2023-03-21T11:29:50;99547.72;;;19.55;43.60
4410;BME280;2218;51.408;7.208;2023-03-21T11:32:22;99546.88;;;19.55;43.73
4410;BME280;2218;51.408;7.208;2023-03-21T11:34:56;99546.88;;;19.55;43.64
4410;BME280;2218;51.408;7.208;2023-03-21T11:37:27;99543.28;;;19.56;43.79
4410;BME280;2218;51.408;7.208;2023-03-21T11:40:12;99551.06;;;19.57;43.70
4410;BME280;2218;51.408;7.208;2023-03-21T11:42:48;99545.78;;;19.57;43.63
4410;BME280;2218;51.408;7.208;2023-03-21T11:45:20;99545.78;;;19.57;43.76
4410;BME280;2218;51.408;7.208;2023-03-21T11:47:49;99536.94;;;19.58;43.58
4410;BME280;2218;51.408;7.208;2023-03-21T11:50:25;99541.34;;;19.58;43.65
4410;BME280;2218;51.408;7.208;2023-03-21T11:53:19;99541.34;;;19.58;43.84
4410;BME280;2218;51.408;7.208;2023-03-21T11:56:09;99536.94;;;19.58;43.78
4410;BME280;2218;51.408;7.208;2023-03-21T11:59:06;99532.50;;;19.59;43.92
4410;BME280;2218;51.408;7.208;2023-03-21T12:01:55;99527.22;;;19.59;43.83
4410;BME280;2218;51.408;7.208;2023-03-21T12:04:38;99530.75;;;19.59;43.86
4410;BME280;2218;51.408;7.208;2023-03-21T12:07:25;99523.69;;;19.60;43.61
4410;BME280;2218;51.408;7.208;2023-03-21T12:10:09;99512.19;;;19.61;43.84
4410;BME280;2218;51.408;7.208;2023-03-21T12:12:51;99509.53;;;19.61;43.74
4410;BME280;2218;51.408;7.208;2023-03-21T12:15:30;99503.31;;;19.62;43.82
4410;BME280;2218;51.408;7.208;2023-03-21T12:18:12;99502.34;;;19.63;43.67
4410;BME280;2218;51.408;7.208;2023-03-21T12:20:48;99511.22;;;19.62;43.70
4410;BME280;2218;51.408;7.208;2023-03-21T12:23:48;99512.91;;;19.63;43.84
4410;BME280;2218;51.408;7.208;2023-03-21T12:26:23;99506.78;;;19.62;43.86
4410;BME280;2218;51.408;7.208;2023-03-21T12:29:13;99516.50;;;19.62;43.67
4410;BME280;2218;51.408;7.208;2023-03-21T12:32:00;99512.91;;;19.63;43.74
4410;BME280;2218;51.408;7.208;2023-03-21T12:35:00;99501.50;;;19.62;43.59
4410;BME280;2218;51.408;7.208;2023-03-21T12:37:36;99495.41;;;19.62;43.83
4410;BME280;2218;51.408;7.208;2023-03-21T12:40:16;99503.31;;;19.62;43.69
4410;BME280;2218;51.408;7.208;2023-03-21T12:43:20;99502.34;;;19.63;43.75
4410;BME280;2218;51.408;7.208;2023-03-21T12:45:54;99496.25;;;19.62;43.60
4410;BME280;2218;51.408;7.208;2023-03-21T12:48:37;99491.81;;;19.63;43.81
4410;BME280;2218;51.408;7.208;2023-03-21T12:51:12;99497.91;;;19.63;43.70
4410;BME280;2218;51.408;7.208;2023-03-21T12:53:53;99492.66;;;19.63;43.88
4410;BME280;2218;51.408;7.208;2023-03-21T12:56:28;99482.22;;;19.62;43.69
4410;BME280;2218;51.408;7.208;2023-03-21T12:59:03;99474.31;;;19.62;43.84
4410;BME280;2218;51.408;7.208;2023-03-21T13:01:37;99479.59;;;19.62;43.37
4410;BME280;2218;51.408;7.208;2023-03-21T13:04:31;99491.09;;;19.61;43.58
4410;BME280;2218;51.408;7.208;2023-03-21T13:07:06;99482.22;;;19.62;43.77
4410;BME280;2218;51.408;7.208;2023-03-21T13:09:38;99477.06;;;19.60;43.55
4410;BME280;2218;51.408;7.208;2023-03-21T13:12:23;99476.94;;;19.62;43.69
4410;BME280;2218;51.408;7.208;2023-03-21T13:15:05;99465.56;;;19.61;43.71
4410;BME280;2218;51.408;7.208;2023-03-21T13:17:40;99468.09;;;19.63;43.72
4410;BME280;2218;51.408;7.208;2023-03-21T13:20:20;99469.03;;;19.62;43.74
4410;BME280;2218;51.408;7.208;2023-03-21T13:22:48;99453.22;;;19.62;43.59
4410;BME280;2218;51.408;7.208;2023-03-21T13:25:20;99459.34;;;19.62;43.66
4410;BME280;2218;51.408;7.208;2023-03-21T13:27:53;99460.16;;;19.63;43.59
4410;BME280;2218;51.408;7.208;2023-03-21T13:30:22;99444.34;;;19.63;43.46
4410;BME280;2218;51.408;7.208;2023-03-21T13:33:03;99445.19;;;19.63;43.82
4410;BME280;2218;51.408;7.208;2023-03-21T13:35:35;99444.34;;;19.63;43.67
4410;BME280;2218;51.408;7.208;2023-03-21T13:38:10;99434.66;;;19.63;43.59
4410;BME280;2218;51.408;7.208;2023-03-21T13:40:43;99432.84;;;19.64;43.83
4410;BME280;2218;51.408;7.208;2023-03-21T13:43:34;99435.47;;;19.64;43.68
4410;BME280;2218;51.408;7.208;2023-03-21T13:46:07;99413.56;;;19.63;43.53
4410;BME280;2218;51.408;7.208;2023-03-21T13:48:55;99418.81;;;19.63;43.57
4410;BME280;2218;51.408;7.208;2023-03-21T13:51:49;99410.00;;;19.65;43.65
4410;BME280;2218;51.408;7.208;2023-03-21T13:54:24;99419.66;;;19.64;43.40
4410;BME280;2218;51.408;7.208;2023-03-21T13:56:57;99411.75;;;19.64;43.60
4410;BME280;2218;51.408;7.208;2023-03-21T13:59:41;99409.13;;;19.64;43.72